PWSweather.com
Personal Weather Stations
Station Observations
KMIEASTT1
Tawas Bay, East Tawas, MI 48730

Tawas BayEast Tawas, MI 48730

Lat: 44.28, Lon: -83.48

Elevation: 600

Station Type: Davis VantagePro

http://www.tawasbayweather.com

Latest ConditionsUpdated 6:00:12 PM EDT Friday, May 22, 2015
Currently Today's Max Today's Min Today's Average
Temperature 47.0°F8.3°C 57.4°F14.1°C 39.8°F4.3°C 46.8°F8.2°C
Dew Point 34.7°F1.5°C 41.0°F5.0°C 27.0°F-2.8°C 33.6°F0.9°C
Winds 4.0 mph ENE6.4 kmh ENE 16.0 mph ESE25.7 kmh ESE - 5.0 mph 8.0 kmh
Wind Gusts 14.0 mph22.5 kmh 19.0 mph30.6 kmh - -
Humidity 62% 81% 33% 61%
Pressure 30.27 in1025.1 mb 30.27 in1025.1 mb 29.98 in1015.2 mb -
Hour Temp Dew Point Humidity Winds Wind Gusts Pressure Precip Precip Rate Daily Precip Total
06:00 PM 47.0°F8.3°C 34.7°F1.5°C 62% 4.0 mph ENE6.4 kmh ENE 14.0 mph22.5 kmh 30.27 in1025.1 mb 0.00 in0.0 mm 0.00 in0.0 mm 0.00 in0.0 mm
05:45 PM 46.7°F8.2°C 35.6°F2.0°C 65% 11.0 mph E17.7 kmh E 14.0 mph22.5 kmh 30.27 in1025.1 mb 0.00 in0.0 mm 0.00 in0.0 mm 0.00 in0.0 mm
05:30 PM 46.9°F8.3°C 36.5°F2.5°C 67% 7.0 mph E11.3 kmh E 14.0 mph22.5 kmh 30.26 in1024.7 mb 0.00 in0.0 mm 0.00 in0.0 mm 0.00 in0.0 mm
05:15 PM 46.8°F8.2°C 36.1°F2.3°C 66% 14.0 mph ESE22.5 kmh ESE 14.0 mph22.5 kmh 30.26 in1024.7 mb 0.00 in0.0 mm 0.00 in0.0 mm 0.00 in0.0 mm
05:00 PM 46.7°F8.2°C 36.7°F2.6°C 68% 3.0 mph ESE4.8 kmh ESE 15.0 mph24.1 kmh 30.26 in1024.7 mb 0.00 in0.0 mm 0.00 in0.0 mm 0.00 in0.0 mm
04:45 PM 46.6°F8.1°C 37.7°F3.2°C 71% 13.0 mph E20.9 kmh E 15.0 mph24.1 kmh 30.26 in1024.7 mb 0.00 in0.0 mm 0.00 in0.0 mm 0.00 in0.0 mm
04:30 PM 46.3°F7.9°C 37.4°F3.0°C 71% 13.0 mph E20.9 kmh E 16.0 mph25.7 kmh 30.26 in1024.7 mb 0.00 in0.0 mm 0.00 in0.0 mm 0.00 in0.0 mm
04:15 PM 46.3°F7.9°C 37.8°F3.2°C 72% 10.0 mph E16.1 kmh E 17.0 mph27.4 kmh 30.26 in1024.7 mb 0.00 in0.0 mm 0.00 in0.0 mm 0.00 in0.0 mm
04:00 PM 46.0°F7.8°C 37.8°F3.2°C 73% 10.0 mph E16.1 kmh E 15.0 mph24.1 kmh 30.25 in1024.4 mb 0.00 in0.0 mm 0.00 in0.0 mm 0.00 in0.0 mm
03:45 PM 45.7°F7.6°C 38.9°F3.8°C 77% 14.0 mph E22.5 kmh E 16.0 mph25.7 kmh 30.25 in1024.4 mb 0.00 in0.0 mm 0.00 in0.0 mm 0.00 in0.0 mm
03:30 PM 45.7°F7.6°C 36.5°F2.5°C 70% 13.0 mph E20.9 kmh E 14.0 mph22.5 kmh 30.25 in1024.4 mb 0.00 in0.0 mm 0.00 in0.0 mm 0.00 in0.0 mm
03:15 PM 45.9°F7.7°C 37.4°F3.0°C 72% 8.0 mph E12.9 kmh E 17.0 mph27.4 kmh 30.25 in1024.4 mb 0.00 in0.0 mm 0.00 in0.0 mm 0.00 in0.0 mm
03:00 PM 45.9°F7.7°C 38.4°F3.6°C 75% 5.0 mph E8.0 kmh E 19.0 mph30.6 kmh 30.25 in1024.4 mb 0.00 in0.0 mm 0.00 in0.0 mm 0.00 in0.0 mm
02:45 PM 46.1°F7.8°C 38.3°F3.5°C 74% 9.0 mph ESE14.5 kmh ESE 18.0 mph29.0 kmh 30.24 in1024.0 mb 0.00 in0.0 mm 0.00 in0.0 mm 0.00 in0.0 mm
02:30 PM 45.8°F7.7°C 39.0°F3.9°C 77% 11.0 mph E17.7 kmh E 18.0 mph29.0 kmh 30.24 in1024.0 mb 0.00 in0.0 mm 0.00 in0.0 mm 0.00 in0.0 mm
02:15 PM 46.4°F8.0°C 39.9°F4.4°C 78% 14.0 mph E22.5 kmh E 18.0 mph29.0 kmh 30.23 in1023.7 mb 0.00 in0.0 mm 0.00 in0.0 mm 0.00 in0.0 mm
02:00 PM 46.7°F8.2°C 39.6°F4.2°C 76% 6.0 mph E9.7 kmh E 19.0 mph30.6 kmh 30.22 in1023.4 mb 0.00 in0.0 mm 0.00 in0.0 mm 0.00 in0.0 mm
01:45 PM 47.0°F8.3°C 39.8°F4.3°C 76% 10.0 mph E16.1 kmh E 16.0 mph25.7 kmh 30.22 in1023.4 mb 0.00 in0.0 mm 0.00 in0.0 mm 0.00 in0.0 mm
01:30 PM 47.3°F8.5°C 38.4°F3.6°C 71% 10.0 mph E16.1 kmh E 17.0 mph27.4 kmh 30.22 in1023.4 mb 0.00 in0.0 mm 0.00 in0.0 mm 0.00 in0.0 mm
01:15 PM 46.6°F8.1°C 40.1°F4.5°C 78% 11.0 mph E17.7 kmh E 19.0 mph30.6 kmh 30.22 in1023.4 mb 0.00 in0.0 mm 0.00 in0.0 mm 0.00 in0.0 mm
01:00 PM 46.5°F8.1°C 41.0°F5.0°C 81% 15.0 mph ESE24.1 kmh ESE 17.0 mph27.4 kmh 30.21 in1023.0 mb 0.00 in0.0 mm 0.00 in0.0 mm 0.00 in0.0 mm
12:46 PM 47.1°F8.4°C 40.6°F4.8°C 78% 16.0 mph ESE25.7 kmh ESE 18.0 mph29.0 kmh 30.20 in1022.7 mb 0.00 in0.0 mm 0.00 in0.0 mm 0.00 in0.0 mm
12:30 PM 55.7°F13.2°C 38.4°F3.6°C 52% 9.0 mph E14.5 kmh E 15.0 mph24.1 kmh 30.21 in1023.0 mb 0.00 in0.0 mm 0.00 in0.0 mm 0.00 in0.0 mm
12:15 PM 57.4°F14.1°C 30.0°F-1.1°C 35% 1.0 mph N1.6 kmh N 7.0 mph11.3 kmh 30.19 in1022.4 mb 0.00 in0.0 mm 0.00 in0.0 mm 0.00 in0.0 mm
12:00 PM 55.9°F13.3°C 28.0°F-2.2°C 34% 4.0 mph NW6.4 kmh NW 16.0 mph25.7 kmh 30.19 in1022.4 mb 0.00 in0.0 mm 0.00 in0.0 mm 0.00 in0.0 mm
11:45 AM 55.6°F13.1°C 27.0°F-2.8°C 33% 4.0 mph W6.4 kmh W 11.0 mph17.7 kmh 30.19 in1022.4 mb 0.00 in0.0 mm 0.00 in0.0 mm 0.00 in0.0 mm
11:30 AM 55.7°F13.2°C 29.9°F-1.2°C 37% 2.0 mph NW3.2 kmh NW 7.0 mph11.3 kmh 30.19 in1022.4 mb 0.00 in0.0 mm 0.00 in0.0 mm 0.00 in0.0 mm
11:15 AM 55.1°F12.8°C 30.0°F-1.1°C 38% 3.0 mph N4.8 kmh N 9.0 mph14.5 kmh 30.18 in1022.0 mb 0.00 in0.0 mm 0.00 in0.0 mm 0.00 in0.0 mm
11:00 AM 55.3°F12.9°C 29.5°F-1.4°C 37% 2.0 mph NW3.2 kmh NW 9.0 mph14.5 kmh 30.18 in1022.0 mb 0.00 in0.0 mm 0.00 in0.0 mm 0.00 in0.0 mm
10:45 AM 53.9°F12.2°C 27.6°F-2.4°C 36% 9.0 mph NW14.5 kmh NW 9.0 mph14.5 kmh 30.18 in1022.0 mb 0.00 in0.0 mm 0.00 in0.0 mm 0.00 in0.0 mm
10:30 AM 53.4°F11.9°C 29.1°F-1.6°C 39% 9.0 mph W14.5 kmh W 14.0 mph22.5 kmh 30.18 in1022.0 mb 0.00 in0.0 mm 0.00 in0.0 mm 0.00 in0.0 mm
10:15 AM 53.1°F11.7°C 31.8°F-0.1°C 44% 5.0 mph WNW8.0 kmh WNW 5.0 mph8.0 kmh 30.18 in1022.0 mb 0.00 in0.0 mm 0.00 in0.0 mm 0.00 in0.0 mm
10:00 AM 52.2°F11.2°C 33.1°F0.6°C 48% 1.0 mph NW1.6 kmh NW 5.0 mph8.0 kmh 30.18 in1022.0 mb 0.00 in0.0 mm 0.00 in0.0 mm 0.00 in0.0 mm
09:45 AM 50.4°F10.2°C 31.5°F-0.3°C 48% 2.0 mph N3.2 kmh N 7.0 mph11.3 kmh 30.18 in1022.0 mb 0.00 in0.0 mm 0.00 in0.0 mm 0.00 in0.0 mm
09:30 AM 50.1°F10.1°C 33.2°F0.7°C 52% Calm Calm 5.0 mph8.0 kmh 30.18 in1022.0 mb 0.00 in0.0 mm 0.00 in0.0 mm 0.00 in0.0 mm
09:15 AM 49.4°F9.7°C 34.4°F1.3°C 56% 1.0 mph NW1.6 kmh NW 4.0 mph6.4 kmh 30.17 in1021.7 mb 0.00 in0.0 mm 0.00 in0.0 mm 0.00 in0.0 mm
09:00 AM 47.3°F8.5°C 33.7°F0.9°C 59% 4.0 mph N6.4 kmh N 6.0 mph9.7 kmh 30.17 in1021.7 mb 0.00 in0.0 mm 0.00 in0.0 mm 0.00 in0.0 mm
08:45 AM 46.9°F8.3°C 33.3°F0.7°C 59% 3.0 mph NNW4.8 kmh NNW 6.0 mph9.7 kmh 30.16 in1021.3 mb 0.00 in0.0 mm 0.00 in0.0 mm 0.00 in0.0 mm
08:30 AM 46.5°F8.1°C 33.8°F1.0°C 61% 2.0 mph NW3.2 kmh NW 4.0 mph6.4 kmh 30.16 in1021.3 mb 0.00 in0.0 mm 0.00 in0.0 mm 0.00 in0.0 mm
08:15 AM 45.5°F7.5°C 34.4°F1.3°C 65% Calm Calm 5.0 mph8.0 kmh 30.15 in1021.0 mb 0.00 in0.0 mm 0.00 in0.0 mm 0.00 in0.0 mm
08:00 AM 44.1°F6.7°C 34.6°F1.4°C 69% Calm Calm 7.0 mph11.3 kmh 30.15 in1021.0 mb 0.00 in0.0 mm 0.00 in0.0 mm 0.00 in0.0 mm
07:45 AM 42.6°F5.9°C 34.6°F1.4°C 73% 2.0 mph NW3.2 kmh NW 5.0 mph8.0 kmh 30.14 in1020.7 mb 0.00 in0.0 mm 0.00 in0.0 mm 0.00 in0.0 mm
07:30 AM 41.6°F5.3°C 33.9°F1.1°C 74% 1.0 mph N1.6 kmh N 5.0 mph8.0 kmh 30.14 in1020.7 mb 0.00 in0.0 mm 0.00 in0.0 mm 0.00 in0.0 mm
07:15 AM 40.9°F4.9°C 33.3°F0.7°C 74% 2.0 mph N3.2 kmh N 5.0 mph8.0 kmh 30.13 in1020.3 mb 0.00 in0.0 mm 0.00 in0.0 mm 0.00 in0.0 mm
07:00 AM 40.3°F4.6°C 33.0°F0.6°C 75% 3.0 mph NW4.8 kmh NW 5.0 mph8.0 kmh 30.13 in1020.3 mb 0.00 in0.0 mm 0.00 in0.0 mm 0.00 in0.0 mm
06:45 AM 39.8°F4.3°C 32.5°F0.3°C 75% 5.0 mph N8.0 kmh N 6.0 mph9.7 kmh 30.11 in1019.6 mb 0.00 in0.0 mm 0.00 in0.0 mm 0.00 in0.0 mm
06:30 AM 39.8°F4.3°C 31.9°F-0.1°C 73% 3.0 mph NNW4.8 kmh NNW 3.0 mph4.8 kmh 30.11 in1019.6 mb 0.00 in0.0 mm 0.00 in0.0 mm 0.00 in0.0 mm
06:15 AM 40.1°F4.5°C 31.5°F-0.3°C 71% 1.0 mph NNW1.6 kmh NNW 7.0 mph11.3 kmh 30.10 in1019.3 mb 0.00 in0.0 mm 0.00 in0.0 mm 0.00 in0.0 mm
06:00 AM 40.3°F4.6°C 31.0°F-0.6°C 69% 1.0 mph N1.6 kmh N 4.0 mph6.4 kmh 30.09 in1019.0 mb 0.00 in0.0 mm 0.00 in0.0 mm 0.00 in0.0 mm
05:45 AM 40.6°F4.8°C 30.5°F-0.8°C 67% 1.0 mph N1.6 kmh N 5.0 mph8.0 kmh 30.09 in1019.0 mb 0.00 in0.0 mm 0.00 in0.0 mm 0.00 in0.0 mm
05:30 AM 40.9°F4.9°C 30.8°F-0.7°C 67% 2.0 mph NNW3.2 kmh NNW 5.0 mph8.0 kmh 30.07 in1018.3 mb 0.00 in0.0 mm 0.00 in0.0 mm 0.00 in0.0 mm
05:15 AM 41.2°F5.1°C 30.3°F-0.9°C 65% Calm Calm 5.0 mph8.0 kmh 30.07 in1018.3 mb 0.00 in0.0 mm 0.00 in0.0 mm 0.00 in0.0 mm
05:00 AM 41.5°F5.3°C 30.3°F-0.9°C 64% 1.0 mph N1.6 kmh N 4.0 mph6.4 kmh 30.06 in1017.9 mb 0.00 in0.0 mm 0.00 in0.0 mm 0.00 in0.0 mm
04:45 AM 41.8°F5.4°C 30.1°F-1.1°C 63% 1.0 mph N1.6 kmh N 4.0 mph6.4 kmh 30.05 in1017.6 mb 0.00 in0.0 mm 0.00 in0.0 mm 0.00 in0.0 mm
04:30 AM 42.0°F5.6°C 29.9°F-1.2°C 62% 3.0 mph NW4.8 kmh NW 5.0 mph8.0 kmh 30.04 in1017.3 mb 0.00 in0.0 mm 0.00 in0.0 mm 0.00 in0.0 mm
04:15 AM 42.4°F5.8°C 29.9°F-1.2°C 61% 4.0 mph NW6.4 kmh NW 5.0 mph8.0 kmh 30.03 in1016.9 mb 0.00 in0.0 mm 0.00 in0.0 mm 0.00 in0.0 mm
04:00 AM 42.7°F5.9°C 29.8°F-1.2°C 60% 5.0 mph NW8.0 kmh NW 6.0 mph9.7 kmh 30.03 in1016.9 mb 0.00 in0.0 mm 0.00 in0.0 mm 0.00 in0.0 mm
03:45 AM 43.3°F6.3°C 30.0°F-1.1°C 59% 1.0 mph NW1.6 kmh NW 5.0 mph8.0 kmh 30.02 in1016.6 mb 0.00 in0.0 mm 0.00 in0.0 mm 0.00 in0.0 mm
03:30 AM 43.8°F6.6°C 30.0°F-1.1°C 58% 4.0 mph NW6.4 kmh NW 6.0 mph9.7 kmh 30.02 in1016.6 mb 0.00 in0.0 mm 0.00 in0.0 mm 0.00 in0.0 mm
03:15 AM 44.2°F6.8°C 30.0°F-1.1°C 57% 3.0 mph NW4.8 kmh NW 5.0 mph8.0 kmh 30.02 in1016.6 mb 0.00 in0.0 mm 0.00 in0.0 mm 0.00 in0.0 mm
03:00 AM 44.3°F6.8°C 30.0°F-1.1°C 57% 3.0 mph NW4.8 kmh NW 5.0 mph8.0 kmh 30.01 in1016.3 mb 0.00 in0.0 mm 0.00 in0.0 mm 0.00 in0.0 mm
02:45 AM 44.8°F7.1°C 30.5°F-0.8°C 57% 2.0 mph NW3.2 kmh NW 4.0 mph6.4 kmh 30.01 in1016.3 mb 0.00 in0.0 mm 0.00 in0.0 mm 0.00 in0.0 mm
02:30 AM 45.4°F7.4°C 30.6°F-0.8°C 56% 3.0 mph NW4.8 kmh NW 9.0 mph14.5 kmh 30.01 in1016.3 mb 0.00 in0.0 mm 0.00 in0.0 mm 0.00 in0.0 mm
02:15 AM 45.9°F7.7°C 31.1°F-0.5°C 56% 5.0 mph WNW8.0 kmh WNW 7.0 mph11.3 kmh 30.00 in1015.9 mb 0.00 in0.0 mm 0.00 in0.0 mm 0.00 in0.0 mm
02:00 AM 46.4°F8.0°C 31.6°F-0.2°C 56% 3.0 mph WNW4.8 kmh WNW 8.0 mph12.9 kmh 30.00 in1015.9 mb 0.00 in0.0 mm 0.00 in0.0 mm 0.00 in0.0 mm
01:45 AM 46.8°F8.2°C 32.0°F0.0°C 56% 4.0 mph NW6.4 kmh NW 6.0 mph9.7 kmh 30.00 in1015.9 mb 0.00 in0.0 mm 0.00 in0.0 mm 0.00 in0.0 mm
01:30 AM 47.2°F8.4°C 31.9°F-0.1°C 55% 2.0 mph NW3.2 kmh NW 4.0 mph6.4 kmh 30.00 in1015.9 mb 0.00 in0.0 mm 0.00 in0.0 mm 0.00 in0.0 mm
01:15 AM 47.9°F8.8°C 32.1°F0.1°C 54% 2.0 mph NW3.2 kmh NW 6.0 mph9.7 kmh 30.00 in1015.9 mb 0.00 in0.0 mm 0.00 in0.0 mm 0.00 in0.0 mm
01:00 AM 48.6°F9.2°C 32.7°F0.4°C 54% 4.0 mph NNW6.4 kmh NNW 6.0 mph9.7 kmh 30.00 in1015.9 mb 0.00 in0.0 mm 0.00 in0.0 mm 0.00 in0.0 mm
12:45 AM 49.3°F9.6°C 32.9°F0.5°C 53% 1.0 mph NW1.6 kmh NW 5.0 mph8.0 kmh 29.99 in1015.6 mb 0.00 in0.0 mm 0.00 in0.0 mm 0.00 in0.0 mm
12:30 AM 50.0°F10.0°C 33.1°F0.6°C 52% 4.0 mph NW6.4 kmh NW 5.0 mph8.0 kmh 29.99 in1015.6 mb 0.00 in0.0 mm 0.00 in0.0 mm 0.00 in0.0 mm
12:15 AM 51.0°F10.6°C 33.0°F0.6°C 50% 1.0 mph NW1.6 kmh NW 8.0 mph12.9 kmh 29.99 in1015.6 mb 0.00 in0.0 mm 0.00 in0.0 mm 0.00 in0.0 mm
12:00 AM 51.7°F10.9°C 34.2°F1.2°C 51% 2.0 mph NW3.2 kmh NW 5.0 mph8.0 kmh 29.98 in1015.2 mb 0.00 in0.0 mm 0.00 in0.0 mm 0.00 in0.0 mm